Private Wetterstation Sandau
Wetterdaten: Woche 20.08.12 - 26.08.12 (KW34)
Datum Zeit Temp. A. Feuchte A. Luftdruck Regen Wind Richtung Taupunkt Windchill
20.08.2012 00:00 23,3 C 58 % 1015,6 hPa 0,0 l/m 1,7 km/h (1 Bft) S-SO 14,6 C 23,3 C
20.08.2012 01:00 22,6 C 61 % 1015,7 hPa 0,0 l/m 0,9 km/h (0 Bft) S 14,7 C 22,6 C
20.08.2012 02:00 22,7 C 63 % 1015,6 hPa 0,0 l/m 2,7 km/h (1 Bft) SO 15,4 C 22,7 C
20.08.2012 03:00 22,2 C 65 % 1015,6 hPa 0,0 l/m 0,6 km/h (0 Bft) S-SO 15,3 C 22,2 C
20.08.2012 04:00 21,4 C 67 % 1015,4 hPa 0,0 l/m 0,5 km/h (0 Bft) S-SO 15,2 C 21,4 C
20.08.2012 05:00 20,8 C 70 % 1015,5 hPa 0,0 l/m 0,4 km/h (0 Bft) SO 15,2 C 20,8 C
20.08.2012 06:00 20,5 C 73 % 1015,8 hPa 0,0 l/m 1,3 km/h (1 Bft) SO 15,5 C 20,5 C
20.08.2012 07:00 22,1 C 69 % 1015,9 hPa 0,0 l/m 2,2 km/h (1 Bft) S-SO 16,1 C 22,1 C
20.08.2012 08:00 24,0 C 65 % 1015,7 hPa 0,0 l/m 6,8 km/h (2 Bft) S-SW 17,0 C 24,0 C
20.08.2012 09:00 27,8 C 58 % 1016,3 hPa 0,0 l/m 3,0 km/h (1 Bft) W-SW 18,6 C 27,8 C
20.08.2012 10:00 26,5 C 62 % 1017,4 hPa 0,0 l/m 11,8 km/h (2 Bft) N-NO 18,5 C 26,5 C
20.08.2012 11:00 28,4 C 56 % 1016,2 hPa 0,0 l/m 8,6 km/h (2 Bft) O-SO 18,8 C 28,4 C
20.08.2012 12:00 31,6 C 47 % 1016,0 hPa 0,0 l/m 7,7 km/h (2 Bft) SO 18,8 C 31,6 C
20.08.2012 13:00 34,6 C 40 % 1015,5 hPa 0,0 l/m 4,6 km/h (1 Bft) SO 18,9 C 34,6 C
20.08.2012 14:00 31,4 C 50 % 1016,0 hPa 1,0 l/m 5,1 km/h (1 Bft) N 19,5 C 31,4 C
20.08.2012 15:00 28,9 C 60 % 1015,8 hPa 0,0 l/m 5,8 km/h (2 Bft) N 20,3 C 28,9 C
20.08.2012 16:00 32,2 C 51 % 1016,1 hPa 0,0 l/m 4,0 km/h (1 Bft) N-NO 20,7 C 32,2 C
20.08.2012 17:00 31,4 C 51 % 1016,7 hPa 0,0 l/m 9,6 km/h (2 Bft) W-NW 20,1 C 31,4 C
20.08.2012 18:00 29,8 C 56 % 1016,8 hPa 0,0 l/m 10,7 km/h (2 Bft) W 20,0 C 29,8 C
20.08.2012 19:00 28,2 C 58 % 1017,0 hPa 0,0 l/m 4,6 km/h (1 Bft) N-NO 19,1 C 28,2 C
20.08.2012 20:00 26,3 C 59 % 1017,5 hPa 0,0 l/m 4,6 km/h (1 Bft) N-NO 17,7 C 26,3 C
20.08.2012 21:00 25,0 C 62 % 1018,3 hPa 0,0 l/m 2,0 km/h (1 Bft) N-NO 17,1 C 25,0 C
20.08.2012 22:00 24,2 C 64 % 1018,7 hPa 0,0 l/m 7,3 km/h (2 Bft) N 16,9 C 24,2 C
20.08.2012 23:00 23,1 C 64 % 1019,0 hPa 0,0 l/m 5,2 km/h (1 Bft) N-NO 15,8 C 23,1 C
21.08.2012 00:00 21,9 C 69 % 1019,5 hPa 0,0 l/m 3,1 km/h (1 Bft) N-NO 15,9 C 21,9 C
21.08.2012 01:00 21,3 C 72 % 1020,2 hPa 0,0 l/m 2,7 km/h (1 Bft) W-NW 16,1 C 21,3 C
21.08.2012 02:00 20,3 C 77 % 1020,3 hPa 0,0 l/m 5,3 km/h (1 Bft) NW 16,1 C 20,3 C
21.08.2012 03:00 19,2 C 80 % 1020,3 hPa 0,0 l/m 4,5 km/h (1 Bft) NW 15,7 C 19,2 C
21.08.2012 04:00 18,4 C 83 % 1020,1 hPa 0,0 l/m 4,4 km/h (1 Bft) NW 15,5 C 18,4 C
21.08.2012 05:00 17,8 C 84 % 1020,3 hPa 0,0 l/m 3,9 km/h (1 Bft) NW 15,0 C 17,8 C
21.08.2012 06:00 17,4 C 86 % 1020,6 hPa 0,0 l/m 1,7 km/h (1 Bft) NO 14,9 C 17,4 C
21.08.2012 07:00 18,3 C 84 % 1020,7 hPa 0,0 l/m 2,9 km/h (1 Bft) NO 15,6 C 18,3 C
21.08.2012 08:00 20,0 C 79 % 1020,5 hPa 0,0 l/m 2,9 km/h (1 Bft) W-NW 16,2 C 20,0 C
21.08.2012 09:00 21,1 C 73 % 1020,6 hPa 0,0 l/m 3,0 km/h (1 Bft) N-NO 16,2 C 21,1 C
21.08.2012 10:00 22,4 C 66 % 1020,4 hPa 0,0 l/m 3,2 km/h (1 Bft) O-NO 15,8 C 22,4 C
21.08.2012 11:00 23,7 C 62 % 1020,1 hPa 0,0 l/m 2,0 km/h (1 Bft) N-NO 16,0 C 23,7 C
21.08.2012 12:00 24,9 C 58 % 1019,4 hPa 0,0 l/m 2,6 km/h (1 Bft) NO 15,9 C 24,9 C
21.08.2012 13:00 26,0 C 53 % 1018,9 hPa 0,0 l/m 2,6 km/h (1 Bft) N-NO 15,7 C 26,0 C
21.08.2012 14:00 26,8 C 50 % 1018,2 hPa 0,0 l/m 2,7 km/h (1 Bft) N-NW 15,3 C 26,8 C
21.08.2012 15:00 25,9 C 50 % 1017,7 hPa 0,0 l/m 2,8 km/h (1 Bft) N 14,7 C 25,9 C
21.08.2012 16:00 26,7 C 48 % 1017,2 hPa 0,0 l/m 1,7 km/h (1 Bft) N-NO 14,8 C 26,7 C
21.08.2012 17:00 25,6 C 51 % 1016,6 hPa 0,0 l/m 1,8 km/h (1 Bft) O-NO 14,6 C 25,6 C
21.08.2012 18:00 24,9 C 57 % 1015,9 hPa 0,0 l/m 2,7 km/h (1 Bft) O-NO 15,7 C 24,9 C
21.08.2012 19:00 24,2 C 59 % 1015,1 hPa 0,0 l/m 1,6 km/h (1 Bft) O-NO 15,6 C 24,2 C
21.08.2012 20:00 23,2 C 63 % 1014,7 hPa 0,0 l/m 1,8 km/h (1 Bft) O-NO 15,8 C 23,2 C
21.08.2012 21:00 22,2 C 67 % 1014,5 hPa 0,0 l/m 1,4 km/h (1 Bft) O-NO 15,8 C 22,2 C
21.08.2012 22:00 21,5 C 72 % 1014,4 hPa 0,0 l/m 2,7 km/h (1 Bft) N-NO 16,1 C 21,5 C
21.08.2012 23:00 20,5 C 78 % 1013,8 hPa 1,0 l/m 1,6 km/h (1 Bft) O-NO 16,6 C 20,5 C
22.08.2012 00:00 19,3 C 86 % 1012,8 hPa 1,6 l/m 5,3 km/h (1 Bft) O-SO 16,9 C 19,3 C
22.08.2012 01:00 18,9 C 89 % 1012,2 hPa 0,0 l/m 3,2 km/h (1 Bft) O-NO 17,0 C 18,9 C
22.08.2012 02:00 18,5 C 89 % 1011,5 hPa 0,0 l/m 0,7 km/h (0 Bft) SO 16,6 C 18,5 C
22.08.2012 03:00 18,2 C 89 % 1011,0 hPa 0,0 l/m 0,8 km/h (0 Bft) SO 16,4 C 18,2 C
22.08.2012 04:00 18,4 C 90 % 1010,9 hPa 0,0 l/m 1,5 km/h (1 Bft) SW 16,7 C 18,4 C
22.08.2012 05:00 18,6 C 91 % 1010,5 hPa 0,0 l/m 4,5 km/h (1 Bft) W-SW 17,0 C 18,6 C
22.08.2012 06:00 18,5 C 92 % 1011,0 hPa 0,0 l/m 8,5 km/h (2 Bft) W-SW 17,1 C 18,5 C
22.08.2012 07:00 18,7 C 91 % 1011,5 hPa 0,0 l/m 12,8 km/h (3 Bft) W-SW 17,3 C 18,7 C
22.08.2012 08:00 19,0 C 89 % 1011,9 hPa 0,0 l/m 8,6 km/h (2 Bft) W-SW 17,1 C 19,0 C
22.08.2012 09:00 19,9 C 82 % 1012,3 hPa 0,0 l/m 11,5 km/h (2 Bft) W 16,7 C 19,9 C
22.08.2012 10:00 21,2 C 71 % 1013,0 hPa 0,0 l/m 15,1 km/h (3 Bft) W 15,8 C 21,2 C
22.08.2012 11:00 22,3 C 64 % 1013,4 hPa 0,0 l/m 18,0 km/h (3 Bft) W-NW 15,3 C 22,3 C
22.08.2012 12:00 23,5 C 58 % 1013,8 hPa 0,0 l/m 12,2 km/h (2 Bft) W-NW 14,7 C 23,5 C
22.08.2012 13:00 24,6 C 52 % 1014,0 hPa 0,0 l/m 11,8 km/h (2 Bft) W-NW 14,0 C 24,6 C
22.08.2012 14:00 24,6 C 48 % 1014,0 hPa 0,0 l/m 12,8 km/h (3 Bft) W-NW 13,0 C 24,6 C
22.08.2012 15:00 24,1 C 49 % 1014,1 hPa 0,0 l/m 10,9 km/h (2 Bft) W-NW 12,6 C 24,1 C
22.08.2012 16:00 25,1 C 46 % 1014,1 hPa 0,0 l/m 9,8 km/h (2 Bft) W-NW 12,6 C 25,1 C
22.08.2012 17:00 23,3 C 51 % 1014,4 hPa 0,0 l/m 10,0 km/h (2 Bft) NW 12,6 C 23,3 C
22.08.2012 18:00 23,1 C 50 % 1014,5 hPa 0,0 l/m 8,2 km/h (2 Bft) NW 12,2 C 23,1 C
22.08.2012 19:00 21,9 C 51 % 1014,7 hPa 0,0 l/m 8,3 km/h (2 Bft) W 11,3 C 21,9 C
22.08.2012 20:00 20,5 C 55 % 1014,9 hPa 0,0 l/m 4,1 km/h (1 Bft) W 11,1 C 20,5 C
22.08.2012 21:00 19,4 C 60 % 1015,3 hPa 0,0 l/m 1,5 km/h (1 Bft) W 11,5 C 19,4 C
22.08.2012 22:00 19,0 C 64 % 1015,5 hPa 0,0 l/m 3,1 km/h (1 Bft) W-SW 12,0 C 19,0 C
22.08.2012 23:00 18,3 C 66 % 1015,4 hPa 0,0 l/m 3,4 km/h (1 Bft) W 11,8 C 18,3 C
23.08.2012 00:00 17,7 C 66 % 1015,6 hPa 0,0 l/m 2,1 km/h (1 Bft) W 11,3 C 17,7 C
23.08.2012 01:00 16,9 C 69 % 1015,8 hPa 0,0 l/m 3,5 km/h (1 Bft) W 11,1 C 16,9 C
23.08.2012 02:00 16,0 C 72 % 1015,8 hPa 0,0 l/m 4,5 km/h (1 Bft) W 10,9 C 16,0 C
23.08.2012 03:00 15,7 C 74 % 1015,9 hPa 0,0 l/m 5,0 km/h (1 Bft) W-SW 11,0 C 15,7 C
23.08.2012 04:00 15,8 C 74 % 1016,0 hPa 0,0 l/m 5,8 km/h (2 Bft) W-SW 11,1 C 15,8 C
23.08.2012 05:00 15,2 C 74 % 1015,8 hPa 0,0 l/m 5,8 km/h (2 Bft) W-SW 10,7 C 15,2 C
23.08.2012 06:00 14,8 C 77 % 1015,7 hPa 0,0 l/m 6,7 km/h (2 Bft) W-SW 10,7 C 14,8 C
23.08.2012 07:00 16,4 C 73 % 1015,9 hPa 0,0 l/m 7,5 km/h (2 Bft) SW 11,6 C 16,4 C
23.08.2012 08:00 17,6 C 71 % 1015,9 hPa 0,0 l/m 10,5 km/h (2 Bft) W-SW 12,2 C 17,6 C
23.08.2012 09:00 19,2 C 66 % 1016,4 hPa 0,0 l/m 12,5 km/h (3 Bft) W-SW 12,6 C 19,2 C
23.08.2012 10:00 20,6 C 59 % 1016,4 hPa 0,0 l/m 13,2 km/h (3 Bft) W-SW 12,3 C 20,6 C
23.08.2012 11:00 22,0 C 53 % 1016,3 hPa 0,0 l/m 14,5 km/h (3 Bft) W 12,0 C 22,0 C
23.08.2012 12:00 23,0 C 48 % 1015,9 hPa 0,0 l/m 11,0 km/h (2 Bft) W-SW 11,5 C 23,0 C
23.08.2012 13:00 24,2 C 44 % 1015,6 hPa 0,0 l/m 13,0 km/h (3 Bft) W-SW 11,3 C 24,2 C
23.08.2012 14:00 25,3 C 42 % 1015,1 hPa 0,0 l/m 11,7 km/h (2 Bft) W-SW 11,3 C 25,3 C
23.08.2012 15:00 24,6 C 43 % 1014,7 hPa 0,0 l/m 10,1 km/h (2 Bft) W-SW 11,1 C 24,6 C
23.08.2012 16:00 24,4 C 43 % 1014,6 hPa 0,0 l/m 12,1 km/h (2 Bft) SW 11,0 C 24,4 C
23.08.2012 17:00 24,7 C 42 % 1014,3 hPa 0,0 l/m 11,6 km/h (2 Bft) W-SW 11,0 C 24,7 C
23.08.2012 18:00 24,2 C 43 % 1014,0 hPa 0,0 l/m 7,7 km/h (2 Bft) W-SW 10,7 C 24,2 C
23.08.2012 19:00 22,8 C 46 % 1013,6 hPa 0,0 l/m 5,0 km/h (1 Bft) W-SW 10,4 C 22,8 C
23.08.2012 20:00 20,5 C 52 % 1013,5 hPa 0,0 l/m 0,8 km/h (0 Bft) S 10,2 C 20,5 C
23.08.2012 21:00 18,3 C 59 % 1013,4 hPa 0,0 l/m 0,1 km/h (0 Bft) W-SW 10,0 C 18,3 C
23.08.2012 22:00 16,7 C 64 % 1013,1 hPa 0,0 l/m 0,4 km/h (0 Bft) SO 9,9 C 16,7 C
23.08.2012 23:00 15,6 C 69 % 1013,1 hPa 0,0 l/m 0,7 km/h (0 Bft) N-NO 9,9 C 15,6 C
24.08.2012 00:00 14,9 C 72 % 1012,8 hPa 0,0 l/m 0,3 km/h (0 Bft) SO 9,9 C 14,9 C
24.08.2012 01:00 14,0 C 74 % 1012,5 hPa 0,0 l/m 0,3 km/h (0 Bft) NO 9,4 C 14,0 C
24.08.2012 02:00 13,7 C 77 % 1012,1 hPa 0,0 l/m 2,9 km/h (1 Bft) O-NO 9,6 C 13,7 C
24.08.2012 03:00 13,0 C 79 % 1011,6 hPa 0,0 l/m 3,4 km/h (1 Bft) O 9,5 C 13,0 C
24.08.2012 04:00 13,0 C 81 % 1011,1 hPa 0,0 l/m 4,4 km/h (1 Bft) O-NO 9,8 C 13,0 C
24.08.2012 05:00 13,2 C 80 % 1010,5 hPa 0,0 l/m 2,9 km/h (1 Bft) O-SO 9,8 C 13,2 C
24.08.2012 06:00 13,4 C 82 % 1009,6 hPa 0,0 l/m 5,3 km/h (1 Bft) O-SO 10,3 C 13,4 C
24.08.2012 07:00 13,7 C 82 % 1008,8 hPa 0,0 l/m 4,8 km/h (1 Bft) O-NO 10,7 C 13,7 C
24.08.2012 08:00 14,1 C 81 % 1008,6 hPa 0,0 l/m 2,6 km/h (1 Bft) O-NO 10,9 C 14,1 C
24.08.2012 09:00 15,1 C 79 % 1009,2 hPa 0,0 l/m 0,2 km/h (0 Bft) O-NO 11,4 C 15,1 C
24.08.2012 10:00 15,6 C 78 % 1009,0 hPa 0,5 l/m 2,8 km/h (1 Bft) O-NO 11,9 C 15,6 C
24.08.2012 11:00 15,6 C 82 % 1008,9 hPa 0,0 l/m 2,0 km/h (1 Bft) O-SO 12,6 C 15,6 C
24.08.2012 12:00 16,8 C 80 % 1008,0 hPa 0,0 l/m 5,3 km/h (1 Bft) O-NO 13,4 C 16,8 C
24.08.2012 13:00 18,7 C 73 % 1008,1 hPa 0,0 l/m 2,3 km/h (1 Bft) NO 13,7 C 18,7 C
24.08.2012 14:00 19,1 C 72 % 1008,1 hPa 0,0 l/m 3,0 km/h (1 Bft) O-NO 14,0 C 19,1 C
24.08.2012 15:00 19,5 C 68 % 1008,1 hPa 0,0 l/m 5,4 km/h (1 Bft) O-SO 13,3 C 19,5 C
24.08.2012 16:00 19,3 C 68 % 1007,9 hPa 0,0 l/m 3,6 km/h (1 Bft) O-NO 13,3 C 19,3 C
24.08.2012 17:00 19,2 C 69 % 1008,0 hPa 0,0 l/m 2,0 km/h (1 Bft) NO 13,3 C 19,2 C
24.08.2012 18:00 18,6 C 72 % 1007,9 hPa 0,0 l/m 2,3 km/h (1 Bft) O-NO 13,5 C 18,6 C
24.08.2012 19:00 18,1 C 74 % 1007,9 hPa 0,0 l/m 1,9 km/h (1 Bft) NO 13,4 C 18,1 C
24.08.2012 20:00 17,2 C 78 % 1008,0 hPa 0,0 l/m 3,1 km/h (1 Bft) O-NO 13,3 C 17,2 C
24.08.2012 21:00 16,3 C 81 % 1007,8 hPa 0,0 l/m 0,8 km/h (0 Bft) O-NO 13,0 C 16,3 C
24.08.2012 22:00 16,0 C 84 % 1008,1 hPa 0,0 l/m 0,2 km/h (0 Bft) O-NO 13,2 C 16,0 C
24.08.2012 23:00 15,9 C 84 % 1008,0 hPa 0,0 l/m 0,7 km/h (0 Bft) O-SO 13,2 C 15,9 C
25.08.2012 00:00 15,1 C 84 % 1007,7 hPa 0,0 l/m 0,0 km/h (0 Bft) N 12,5 C 15,1 C
25.08.2012 01:00 14,7 C 87 % 1007,4 hPa 0,0 l/m 0,0 km/h (0 Bft) N 12,5 C 14,7 C
25.08.2012 02:00 14,2 C 89 % 1007,2 hPa 0,0 l/m 1,8 km/h (1 Bft) O-NO 12,5 C 14,2 C
25.08.2012 03:00 14,7 C 91 % 1007,4 hPa 0,0 l/m 1,7 km/h (1 Bft) O-SO 13,2 C 14,7 C
25.08.2012 04:00 14,8 C 92 % 1007,4 hPa 0,0 l/m 1,7 km/h (1 Bft) O-SO 13,5 C 14,8 C
25.08.2012 05:00 14,9 C 92 % 1006,8 hPa 0,5 l/m 1,4 km/h (1 Bft) O-SO 13,6 C 14,9 C
25.08.2012 06:00 14,9 C 92 % 1006,6 hPa 0,0 l/m 2,5 km/h (1 Bft) SO 13,6 C 14,9 C
25.08.2012 07:00 15,2 C 92 % 1007,0 hPa 0,0 l/m 0,9 km/h (0 Bft) SO 14,0 C 15,2 C
25.08.2012 08:00 16,2 C 92 % 1007,3 hPa 0,0 l/m 1,7 km/h (1 Bft) S-SO 14,9 C 16,2 C
25.08.2012 09:00 18,0 C 87 % 1007,2 hPa 0,0 l/m 1,9 km/h (1 Bft) SO 15,8 C 18,0 C
25.08.2012 10:00 21,0 C 76 % 1007,3 hPa 0,0 l/m 5,6 km/h (1 Bft) SW 16,6 C 21,0 C
25.08.2012 11:00 22,3 C 67 % 1007,5 hPa 0,0 l/m 9,3 km/h (2 Bft) S-SW 15,8 C 22,3 C
25.08.2012 12:00 23,5 C 59 % 1007,4 hPa 0,0 l/m 14,0 km/h (3 Bft) S-SW 14,9 C 23,5 C
25.08.2012 13:00 24,4 C 55 % 1007,1 hPa 0,0 l/m 12,2 km/h (2 Bft) SW 14,7 C 24,4 C
25.08.2012 14:00 25,2 C 53 % 1007,0 hPa 0,0 l/m 11,2 km/h (2 Bft) S 14,8 C 25,2 C
25.08.2012 15:00 26,2 C 51 % 1006,5 hPa 0,0 l/m 14,7 km/h (3 Bft) W-SW 15,2 C 26,2 C
25.08.2012 16:00 26,6 C 50 % 1006,0 hPa 0,0 l/m 12,9 km/h (3 Bft) S-SW 15,2 C 26,6 C
25.08.2012 17:00 24,9 C 53 % 1006,0 hPa 0,0 l/m 10,3 km/h (2 Bft) W 14,6 C 24,9 C
25.08.2012 18:00 23,5 C 54 % 1006,1 hPa 0,0 l/m 14,6 km/h (3 Bft) W-SW 13,5 C 23,5 C
25.08.2012 19:00 23,0 C 58 % 1006,3 hPa 0,0 l/m 6,8 km/h (2 Bft) W-SW 14,2 C 23,0 C
25.08.2012 20:00 21,1 C 65 % 1006,9 hPa 0,0 l/m 2,3 km/h (1 Bft) W-SW 14,3 C 21,1 C
25.08.2012 21:00 19,5 C 69 % 1007,0 hPa 0,0 l/m 0,7 km/h (0 Bft) N 13,8 C 19,5 C
25.08.2012 22:00 18,0 C 72 % 1006,9 hPa 0,0 l/m 0,0 km/h (0 Bft) N 13,0 C 18,0 C
25.08.2012 23:00 17,0 C 77 % 1007,2 hPa 0,0 l/m 0,3 km/h (0 Bft) SO 13,0 C 17,0 C
26.08.2012 00:00 16,8 C 80 % 1007,5 hPa 0,0 l/m 1,8 km/h (1 Bft) O 13,3 C 16,8 C
26.08.2012 01:00 16,8 C 84 % 1007,4 hPa 0,0 l/m 0,0 km/h (0 Bft) N 14,1 C 16,8 C
26.08.2012 02:00 16,0 C 85 % 1007,6 hPa 0,0 l/m 1,9 km/h (1 Bft) S-SO 13,6 C 16,0 C
26.08.2012 03:00 15,5 C 86 % 1007,6 hPa 0,0 l/m 2,2 km/h (1 Bft) S 13,2 C 15,5 C
26.08.2012 04:00 15,0 C 85 % 1007,4 hPa 0,0 l/m 2,6 km/h (1 Bft) S 12,5 C 15,0 C
26.08.2012 05:00 14,6 C 85 % 1007,3 hPa 0,0 l/m 1,3 km/h (1 Bft) S 12,1 C 14,6 C
26.08.2012 06:00 14,1 C 85 % 1007,3 hPa 0,0 l/m 2,5 km/h (1 Bft) S-SO 11,7 C 14,1 C
26.08.2012 07:00 16,5 C 81 % 1007,4 hPa 0,0 l/m 4,5 km/h (1 Bft) S 13,1 C 16,5 C
26.08.2012 08:00 17,7 C 76 % 1007,4 hPa 0,0 l/m 8,5 km/h (2 Bft) SW 13,3 C 17,7 C
26.08.2012 09:00 19,3 C 69 % 1007,3 hPa 0,0 l/m 9,9 km/h (2 Bft) W-SW 13,5 C 19,3 C
26.08.2012 10:00 21,0 C 59 % 1007,3 hPa 0,0 l/m 19,6 km/h (3 Bft) W 12,7 C 21,0 C
26.08.2012 11:00 21,5 C 56 % 1007,5 hPa 0,0 l/m 18,2 km/h (3 Bft) W 12,2 C 21,5 C
26.08.2012 12:00 21,7 C 54 % 1007,6 hPa 0,0 l/m 18,0 km/h (3 Bft) SW 11,8 C 21,7 C
26.08.2012 13:00 21,2 C 57 % 1007,8 hPa 0,0 l/m 19,6 km/h (3 Bft) W-SW 12,4 C 21,2 C
26.08.2012 14:00 21,6 C 57 % 1007,7 hPa 0,0 l/m 22,9 km/h (4 Bft) W-SW 12,5 C 21,6 C
26.08.2012 15:00 20,6 C 61 % 1007,8 hPa 0,0 l/m 19,3 km/h (3 Bft) W-SW 12,8 C 20,6 C
26.08.2012 16:00 20,2 C 64 % 1008,0 hPa 0,0 l/m 22,9 km/h (4 Bft) W-SW 13,1 C 20,2 C
26.08.2012 17:00 19,6 C 67 % 1008,6 hPa 0,5 l/m 17,8 km/h (3 Bft) W 13,2 C 19,6 C
26.08.2012 18:00 17,3 C 82 % 1009,1 hPa 0,5 l/m 13,7 km/h (3 Bft) W-SW 14,1 C 17,3 C
26.08.2012 19:00 16,9 C 85 % 1009,7 hPa 0,0 l/m 12,6 km/h (3 Bft) W 14,3 C 16,9 C
26.08.2012 20:00 16,3 C 85 % 1010,6 hPa 0,0 l/m 13,5 km/h (3 Bft) W-SW 13,9 C 16,3 C
26.08.2012 21:00 15,9 C 87 % 1011,7 hPa 0,0 l/m 11,3 km/h (2 Bft) W-SW 13,6 C 15,9 C
26.08.2012 22:00 15,6 C 87 % 1012,7 hPa 0,0 l/m 8,5 km/h (2 Bft) W 13,4 C 15,6 C
26.08.2012 23:00 15,3 C 87 % 1013,7 hPa 0,0 l/m 10,2 km/h (2 Bft) W-NW 13,1 C 15,3 C
Min-Datum _ 24.08.12 20.08.12 25.08.12 - 20.08.12 - 24.08.12 24.08.12
_ Min-Zeit 03:21 13:36 16:31 - 00:06 - 01:21 03:21
Minimum _ 12,9 C 39 % 1005,8 hPa - 0,0 km/h (0 Bft) - 9,1 C 12,9 C
Max-Datum _ 20.08.12 25.08.12 21.08.12 22.08.12 26.08.12 - 20.08.12 20.08.12
_ Max-Zeit 13:46 07:06 06:46 00:01 16:31 - 16:11 13:46
Maximum _ 35,4 C 93 % 1020,9 hPa 1,6 l/m 36,7 km/h
W-SW (5 Bft)
- 21,4 C 35,4 C
Durchschnitt _ 20,3 C 69 % 1012,5 hPa #5,7 l/m 5,9 km/h (2 Bft) W-SW 14,0 C 20,3 C
(c) by David Heller